Corona, NY (11368)

4:48 AM EDT on September 01, 2015 (GMT -0400)
Jackson Heights, New York | | Change Station
CLOSE
Current Station
Personal Weather Station
Location: Jackson Heights, NY
Elevation: 89 ft
Nearby Weather Stations

Elev 89 ft 40.75 °N, 73.88 °W | Updated 9 seconds ago

Scattered Clouds
Scattered Clouds
78.4 °F
Feels Like 81 °F
N
2.9
Wind Variable Wind from NNW
Gusts 4.0 mph

Today
High -- | Low -- °F
--% Chance of Precip.
Yesterday
High -- | Low -- °F
Precip. -- in
6:22 AM 7:28 PM
Waning Gibbous, 90% visible
Pressure 30.00 in
Visibility 10.0 miles
Clouds Few 7000 ft
Scattered Clouds 25000 ft
Heat Index 81 °F
Dew Point 68 °F
Humidity 69%
Rainfall 0.00 in
Snow Depth Not available.
UV 0.0 out of 12
Pollen 10.60 out of 12
Air Quality Not available.
Flu Activity Not available.
METAR KLGA 010751Z 35003KT 10SM FEW070 SCT250 26/19 A3000 RMK AO2 SLP158 T02610194 $
Pressure 30.00 in
Visibility 10.0 miles
Clouds Few 7000 ft
Scattered Clouds 25000 ft
Heat Index 81 °F
Dew Point 68 °F
Humidity 69%
Rainfall 0.00 in
Snow Depth Not available.
UV 0.0 out of 12
Pollen 10.60 out of 12
Air Quality Not available.
Flu Activity Not available.
METAR KLGA 010751Z 35003KT 10SM FEW070 SCT250 26/19 A3000 RMK AO2 SLP158 T02610194 $

10-Day Weather Forecast

×

Almanac

Astronomy

Sep. 01, 2015 Rise Set
Actual Time
Civil Twilight
Nautical Twilight
Astronomical Twilight
Moon
Length of Visible Light
Length of Day
Tomorrow will be .
, % of the Moon is Illuminated

Today's Extremes

State Highs State Lows

Community

WunderPhotos

Upload Photos

1,851,490 photos uploaded!

WunderBlogs® & News

Nearby

Air Quality

  Air Quality AQ Index Pollutant
Not available.

Snow Depth

Station Depth Elevation

Earthquake Activity

City Distance Mag. Time & Date
Minimum magnitude displayed is 2.5.

Coastal Water Temperatures

Place Temperature

Stations

Nearby Weather Stations

Station Location Temp. Windchill Dew Point Humidity Wind Precip. Elev Updated Type